Time;durP1;ratioP1;P1;durP2;ratioP2;P2;SDS_P1;SDS_P2;PMS_P1;PMS_P2;Temp;Humidity;BMP_temperature;BMP_pressure;BME280_temperature;BME280_humidity;BME280_pressure;Samples;Min_cycle;Max_cycle;Signal;HPM_P1;HPM_P2
2021/04/28 00:00:13;;;;;;;8.35;4.07;;;;;;;11.13;40.04;98697.28;2218982;40;20289;-77
2021/04/28 00:01:45;;;;;;;12.15;5.20;;;;;;;11.11;40.12;98704.66;2217357;40;20384;-78
2021/04/28 00:03:16;;;;;;;9.00;5.07;;;;;;;11.06;40.03;98703.34;2218199;40;20037;-77
2021/04/28 00:04:48;;;;;;;10.50;5.70;;;;;;;11.01;40.22;98700.38;2215800;40;20057;-78
2021/04/28 00:06:20;;;;;;;12.77;6.00;;;;;;;10.96;40.28;98694.72;2216626;40;20030;-78
2021/04/28 00:07:52;;;;;;;17.33;6.60;;;;;;;10.86;40.63;98710.22;2202239;40;20326;-78
2021/04/28 00:09:23;;;;;;;10.57;5.55;;;;;;;10.82;40.84;98706.22;2217168;40;20075;-78
2021/04/28 00:10:54;;;;;;;12.88;5.35;;;;;;;10.79;40.85;98701.22;2188479;40;20053;-78
2021/04/28 00:12:25;;;;;;;9.25;5.65;;;;;;;10.79;40.91;98706.56;2216854;40;20030;-78
2021/04/28 00:13:56;;;;;;;13.13;5.78;;;;;;;10.79;41.11;98702.06;2216791;40;20483;-78
2021/04/28 00:15:30;;;;;;;15.52;5.63;;;;;;;10.74;41.37;98694.59;2216680;40;20060;-78
2021/04/28 00:17:01;;;;;;;14.85;5.13;;;;;;;10.72;41.33;98696.59;2215967;40;20041;-78
2021/04/28 00:18:33;;;;;;;11.32;5.28;;;;;;;10.72;41.60;98701.13;2219167;40;20022;-78
2021/04/28 00:20:07;;;;;;;14.70;5.43;;;;;;;10.68;41.70;98695.28;2177181;40;20041;-78
2021/04/28 00:21:38;;;;;;;10.88;6.32;;;;;;;10.60;41.87;98693.53;2216339;40;20064;-78
2021/04/28 00:23:10;;;;;;;8.60;5.32;;;;;;;10.57;42.15;98693.06;2175630;40;20431;-78
2021/04/28 00:24:42;;;;;;;10.95;4.22;;;;;;;10.57;41.93;98690.38;2217817;40;20030;-79
2021/04/28 00:26:15;;;;;;;16.80;6.32;;;;;;;10.57;42.10;98693.88;2176486;40;20030;-78
2021/04/28 00:27:50;;;;;;;10.98;5.82;;;;;;;10.50;42.33;98692.06;2218957;40;20033;-78
2021/04/28 00:29:21;;;;;;;8.82;4.75;;;;;;;10.51;42.44;98691.91;2205631;40;20385;-77
2021/04/28 00:30:53;;;;;;;9.93;5.10;;;;;;;10.52;42.42;98687.38;2219265;40;20042;-78
2021/04/28 00:32:26;;;;;;;13.90;5.88;;;;;;;10.50;42.62;98689.41;2206824;40;20040;-78
2021/04/28 00:33:58;;;;;;;8.55;4.60;;;;;;;10.49;42.55;98687.75;2223473;40;20060;-77
2021/04/28 00:35:37;;;;;;;12.57;6.22;;;;;;;10.51;42.51;98678.56;2220132;40;20107;-78
2021/04/28 00:37:07;;;;;;;10.02;5.28;;;;;;;10.49;42.85;98690.41;2222755;40;20397;-77
2021/04/28 00:38:40;;;;;;;12.23;6.05;;;;;;;10.43;43.05;98687.44;2219785;40;20040;-78
2021/04/28 00:40:13;;;;;;;15.32;5.20;;;;;;;10.38;43.08;98680.97;2223766;40;20775;-77
2021/04/28 00:41:45;;;;;;;12.63;5.63;;;;;;;10.39;43.16;98686.13;2206460;40;20019;-78
2021/04/28 00:43:17;;;;;;;12.07;6.32;;;;;;;10.36;43.23;98675.78;2190263;40;20042;-78
2021/04/28 00:44:48;;;;;;;10.57;4.93;;;;;;;10.34;43.24;98674.31;2188336;40;20058;-78
2021/04/28 00:46:20;;;;;;;13.85;5.47;;;;;;;10.31;43.16;98678.13;2206723;40;20045;-78
2021/04/28 00:47:52;;;;;;;13.25;5.30;;;;;;;10.29;43.29;98677.50;2201728;40;20045;-76
2021/04/28 00:49:23;;;;;;;12.23;5.90;;;;;;;10.27;43.54;98666.97;2213354;40;20033;-78
2021/04/28 00:50:56;;;;;;;11.07;5.57;;;;;;;10.29;43.64;98669.50;2216183;40;20048;-77
2021/04/28 00:52:28;;;;;;;12.00;5.15;;;;;;;10.29;43.45;98664.97;2210038;40;20042;-77
2021/04/28 00:53:59;;;;;;;14.75;5.95;;;;;;;10.27;43.56;98666.16;2216225;40;20041;-77
2021/04/28 00:55:30;;;;;;;16.90;7.47;;;;;;;10.14;43.54;98669.41;2215259;40;20034;-77
2021/04/28 00:57:04;;;;;;;10.30;4.95;;;;;;;10.10;43.72;98666.25;2216263;40;20049;-78
2021/04/28 00:58:35;;;;;;;10.90;4.90;;;;;;;10.10;43.92;98662.75;2214372;40;20045;-77
2021/04/28 01:00:09;;;;;;;9.90;5.05;;;;;;;10.10;44.00;98666.25;2219042;40;20030;-78
2021/04/28 01:01:40;;;;;;;12.30;5.30;;;;;;;10.11;44.12;98664.41;2214861;40;20042;-78
2021/04/28 01:03:11;;;;;;;12.25;4.97;;;;;;;10.13;43.97;98665.91;2216864;40;20053;-78
2021/04/28 01:04:43;;;;;;;10.85;5.43;;;;;;;10.14;44.10;98666.75;2215185;40;20053;-78
2021/04/28 01:06:16;;;;;;;11.98;4.18;;;;;;;10.14;44.24;98662.22;2217391;40;20092;-78
2021/04/28 01:07:49;;;;;;;13.30;6.20;;;;;;;10.14;44.22;98672.09;2216588;40;20053;-77
2021/04/28 01:09:21;;;;;;;11.40;5.05;;;;;;;10.12;44.38;98664.22;2216972;40;20069;-78
2021/04/28 01:10:53;;;;;;;11.40;6.00;;;;;;;10.10;44.53;98660.94;2159063;40;20042;-78
2021/04/28 01:12:24;;;;;;;12.93;6.32;;;;;;;10.08;44.42;98662.09;2215419;40;20040;-78
2021/04/28 01:13:57;;;;;;;10.68;4.88;;;;;;;10.07;44.39;98665.75;2195790;40;20060;-78
2021/04/28 01:15:30;;;;;;;15.35;6.18;;;;;;;10.07;44.40;98663.94;2220488;40;20053;-78
2021/04/28 01:17:03;;;;;;;19.35;6.53;;;;;;;10.03;44.51;98667.94;2212308;40;20099;-76
2021/04/28 01:18:34;;;;;;;12.50;5.60;;;;;;;9.99;44.57;98669.31;2220066;40;20115;-76
2021/04/28 01:20:06;;;;;;;11.23;5.35;;;;;;;9.98;44.66;98667.66;2216136;40;20037;-77
2021/04/28 01:21:38;;;;;;;10.07;6.25;;;;;;;9.97;44.55;98666.00;2217802;40;20365;-77
2021/04/28 01:23:12;;;;;;;8.52;4.40;;;;;;;9.96;44.55;98667.00;2202888;40;20039;-79
2021/04/28 01:24:43;;;;;;;13.50;5.72;;;;;;;9.93;44.63;98675.34;2207800;40;20062;-77
2021/04/28 01:26:18;;;;;;;12.05;6.10;;;;;;;9.92;44.98;98674.53;2213929;40;20041;-77
2021/04/28 01:27:56;;;;;;;14.65;5.65;;;;;;;9.86;45.35;98675.22;2216131;40;20257;-77
2021/04/28 01:29:28;;;;;;;11.35;6.15;;;;;;;9.80;45.72;98666.06;2214443;40;20053;-77
2021/04/28 01:31:05;;;;;;;10.85;6.13;;;;;;;9.75;46.09;98679.09;2216576;40;20037;-77
2021/04/28 01:32:40;;;;;;;10.63;5.07;;;;;;;9.70;46.33;98670.78;2191878;40;20034;-77
2021/04/28 01:34:12;;;;;;;9.38;4.75;;;;;;;9.66;46.62;98675.63;2213659;40;20089;-77
2021/04/28 01:35:46;;;;;;;14.20;5.47;;;;;;;9.64;46.61;98672.31;2211494;40;20413;-78
2021/04/28 01:37:18;;;;;;;10.13;6.13;;;;;;;9.65;46.25;98673.13;2218616;40;20045;-77
2021/04/28 01:38:53;;;;;;;10.80;5.35;;;;;;;9.61;46.40;98675.31;2210425;40;20053;-78
2021/04/28 01:40:26;;;;;;;7.68;4.13;;;;;;;9.61;46.47;98672.63;2213943;40;20045;-78
2021/04/28 01:41:57;;;;;;;9.82;4.57;;;;;;;9.63;46.48;98675.16;2216162;40;20022;-78
2021/04/28 01:43:30;;;;;;;9.00;4.88;;;;;;;9.63;46.59;98669.81;2218553;40;20083;-78
2021/04/28 01:45:03;;;;;;;7.47;4.38;;;;;;;9.61;46.61;98672.63;2194792;40;20034;-78
2021/04/28 01:46:35;;;;;;;7.35;3.90;;;;;;;9.63;46.55;98681.31;2186478;40;20048;-77
2021/04/28 01:48:09;;;;;;;6.53;3.83;;;;;;;9.62;46.76;98670.81;2212756;40;20045;-78
2021/04/28 01:49:42;;;;;;;6.65;4.03;;;;;;;9.60;46.70;98678.97;2215164;40;20584;-77
2021/04/28 01:51:14;;;;;;;7.97;4.18;;;;;;;9.60;47.06;98664.81;2216271;40;20052;-78
2021/04/28 01:52:46;;;;;;;9.70;5.70;;;;;;;9.56;47.30;98675.00;2210318;40;20337;-78
2021/04/28 01:54:18;;;;;;;9.40;4.93;;;;;;;9.50;47.47;98663.19;2216418;40;20306;-77
2021/04/28 01:55:51;;;;;;;8.75;5.78;;;;;;;9.47;47.78;98666.19;2214445;40;20056;-78
2021/04/28 01:57:25;;;;;;;8.15;4.47;;;;;;;9.46;47.66;98669.03;2216758;40;20029;-78
2021/04/28 01:58:57;;;;;;;12.70;5.85;;;;;;;9.42;47.86;98673.88;2188972;40;20033;-77
2021/04/28 02:00:29;;;;;;;9.50;5.57;;;;;;;9.37;47.92;98665.53;2216469;40;20037;-77
2021/04/28 02:02:03;;;;;;;10.88;5.60;;;;;;;9.36;47.93;98664.72;2183477;40;20054;-77
2021/04/28 02:03:34;;;;;;;12.90;6.07;;;;;;;9.35;47.73;98672.91;2212395;40;20038;-78
2021/04/28 02:05:07;;;;;;;9.93;5.72;;;;;;;9.28;47.90;98669.22;2212856;40;20045;-77
2021/04/28 02:06:39;;;;;;;10.07;5.97;;;;;;;9.21;47.86;98667.25;2214779;40;20440;-78
2021/04/28 02:08:11;;;;;;;7.97;4.97;;;;;;;9.24;47.77;98668.75;2160116;40;20042;-77
2021/04/28 02:09:43;;;;;;;11.00;5.82;;;;;;;9.26;47.62;98665.94;2215867;40;20041;-78
2021/04/28 02:11:15;;;;;;;6.95;4.43;;;;;;;9.30;47.32;98667.22;2197613;40;20041;-78
2021/04/28 02:12:48;;;;;;;9.50;5.90;;;;;;;9.28;47.23;98672.75;2216332;40;20378;-77
2021/04/28 02:14:21;;;;;;;7.38;4.22;;;;;;;9.27;47.29;98665.75;2178303;40;20450;-77
2021/04/28 02:15:55;;;;;;;10.20;4.95;;;;;;;9.30;47.15;98668.09;2210978;40;20044;-77
2021/04/28 02:17:28;;;;;;;8.88;4.93;;;;;;;9.28;47.18;98667.41;2210344;40;20052;-78
2021/04/28 02:19:03;;;;;;;12.52;5.55;;;;;;;9.29;47.41;98657.56;2218311;40;20026;-77
2021/04/28 02:20:36;;;;;;;8.60;4.53;;;;;;;9.28;47.35;98669.22;2201043;40;20084;-76
2021/04/28 02:22:07;;;;;;;10.23;4.30;;;;;;;9.26;47.27;98665.94;2216562;40;20053;-76
2021/04/28 02:23:42;;;;;;;9.25;4.28;;;;;;;9.24;47.32;98671.41;2214792;40;20124;-78
2021/04/28 02:25:14;;;;;;;9.73;5.57;;;;;;;9.23;47.22;98667.06;2216307;40;20041;-76
2021/04/28 02:26:45;;;;;;;9.93;5.22;;;;;;;9.17;47.42;98663.25;2182160;40;20045;-76
2021/04/28 02:28:17;;;;;;;10.98;4.65;;;;;;;9.13;47.29;98656.59;2216007;40;20079;-77
2021/04/28 02:29:48;;;;;;;7.78;4.80;;;;;;;9.10;47.59;98662.25;2209385;40;20065;-76
2021/04/28 02:31:19;;;;;;;8.90;5.90;;;;;;;9.11;47.52;98655.13;2216081;40;20338;-77
2021/04/28 02:32:51;;;;;;;10.43;4.95;;;;;;;9.09;47.56;98657.94;2214684;40;20049;-78
2021/04/28 02:34:23;;;;;;;9.25;5.43;;;;;;;9.07;47.61;98654.59;2216323;40;20045;-75
2021/04/28 02:35:56;;;;;;;13.48;5.55;;;;;;;9.00;47.69;98653.63;2215668;40;20030;-76
2021/04/28 02:37:30;;;;;;;11.80;5.50;;;;;;;8.96;47.83;98650.47;2214529;40;20049;-76
2021/04/28 02:39:07;;;;;;;11.38;5.28;;;;;;;8.95;47.92;98650.63;2215675;40;20041;-76
2021/04/28 02:40:40;;;;;;;11.88;4.43;;;;;;;8.95;48.09;98647.97;2215290;40;20049;-77
2021/04/28 02:42:11;;;;;;;11.98;5.00;;;;;;;8.95;48.06;98653.31;2216634;40;20022;-77
2021/04/28 02:43:43;;;;;;;10.82;5.47;;;;;;;8.92;48.27;98650.97;2215198;40;20626;-77
2021/04/28 02:45:17;;;;;;;8.15;4.75;;;;;;;8.93;48.18;98647.31;2216492;40;20054;-77
2021/04/28 02:46:48;;;;;;;11.30;5.18;;;;;;;8.93;48.27;98645.44;2213880;40;20413;-76
2021/04/28 02:48:21;;;;;;;10.52;5.35;;;;;;;8.95;48.24;98647.97;2216818;40;20588;-76
2021/04/28 02:49:53;;;;;;;8.30;4.68;;;;;;;8.93;48.27;98641.97;2210028;40;20042;-77
2021/04/28 02:51:27;;;;;;;12.05;5.82;;;;;;;8.93;48.20;98641.97;2216527;40;20131;-77
2021/04/28 02:52:59;;;;;;;7.90;4.20;;;;;;;8.93;48.16;98644.63;2199773;40;20322;-77
2021/04/28 02:54:31;;;;;;;9.25;5.43;;;;;;;8.95;48.12;98650.63;2221781;40;20033;-77
2021/04/28 02:56:03;;;;;;;9.82;4.95;;;;;;;8.96;48.11;98645.13;2210781;40;20307;-77
2021/04/28 02:57:35;;;;;;;12.25;5.97;;;;;;;8.93;48.13;98641.97;2215235;40;20045;-78
2021/04/28 02:59:07;;;;;;;9.63;5.18;;;;;;;8.92;48.35;98642.97;2215003;40;20042;-76
2021/04/28 03:00:39;;;;;;;9.50;5.43;;;;;;;8.90;48.47;98643.97;2196610;40;20035;-77
2021/04/28 03:02:10;;;;;;;10.23;5.15;;;;;;;8.85;48.54;98641.00;2175455;40;20044;-76
2021/04/28 03:03:42;;;;;;;9.05;4.95;;;;;;;8.83;48.85;98642.97;2225592;40;20345;-77
2021/04/28 03:05:17;;;;;;;12.00;5.43;;;;;;;8.83;49.14;98636.84;2182253;40;20037;-77
2021/04/28 03:06:49;;;;;;;13.23;5.97;;;;;;;8.78;49.48;98640.00;2227302;40;20067;-76
2021/04/28 03:08:21;;;;;;;11.15;5.97;;;;;;;8.76;49.61;98641.16;2215441;40;20037;-76
2021/04/28 03:09:52;;;;;;;11.38;5.55;;;;;;;8.73;49.70;98642.31;2215809;40;20022;-76
2021/04/28 03:11:24;;;;;;;9.30;4.38;;;;;;;8.74;49.83;98633.31;2212632;40;20045;-77
2021/04/28 03:12:55;;;;;;;17.35;6.63;;;;;;;8.74;50.16;98641.31;2215179;40;20045;-77
2021/04/28 03:14:26;;;;;;;19.77;6.03;;;;;;;8.69;50.67;98633.84;2213550;39;20044;-76
2021/04/28 03:15:58;;;;;;;9.35;5.28;;;;;;;8.64;50.87;98636.19;2215108;40;20136;-77
2021/04/28 03:17:29;;;;;;;10.38;4.80;;;;;;;8.62;50.97;98637.31;2200747;40;20045;-76
2021/04/28 03:19:02;;;;;;;9.90;5.13;;;;;;;8.58;51.06;98635.00;2212067;40;20310;-78
2021/04/28 03:20:34;;;;;;;13.80;5.72;;;;;;;8.57;51.27;98641.34;2206139;40;20042;-76
2021/04/28 03:22:06;;;;;;;11.45;6.00;;;;;;;8.52;51.66;98637.50;2212340;40;20068;-77
2021/04/28 03:23:37;;;;;;;9.98;5.35;;;;;;;8.40;51.99;98643.13;2204936;40;20298;-76
2021/04/28 03:25:11;;;;;;;13.82;6.55;;;;;;;8.28;52.36;98639.94;2208783;40;20030;-76
2021/04/28 03:26:43;;;;;;;11.32;6.15;;;;;;;8.13;52.98;98646.88;2209453;40;20049;-76
2021/04/28 03:28:14;;;;;;;8.90;5.35;;;;;;;7.98;53.43;98646.72;2209252;40;20041;-76
2021/04/28 03:29:45;;;;;;;8.35;5.45;;;;;;;7.84;53.79;98648.13;2206944;40;20062;-77
2021/04/28 03:31:16;;;;;;;9.82;4.90;;;;;;;7.69;54.07;98650.63;2215358;40;20045;-77
2021/04/28 03:32:48;;;;;;;10.07;5.97;;;;;;;7.61;54.33;98659.38;2208816;40;20045;-77
2021/04/28 03:34:20;;;;;;;9.25;5.35;;;;;;;7.52;54.54;98654.16;2209716;40;20034;-76
2021/04/28 03:35:51;;;;;;;8.45;5.22;;;;;;;7.42;54.93;98656.97;2207629;40;20022;-75
2021/04/28 03:37:22;;;;;;;13.63;5.90;;;;;;;7.33;55.26;98654.25;2207337;40;20041;-76
2021/04/28 03:38:54;;;;;;;10.90;5.90;;;;;;;7.25;55.17;98656.88;2210038;40;20037;-77
2021/04/28 03:40:25;;;;;;;9.95;6.38;;;;;;;7.16;55.47;98655.97;2206236;40;20562;-77
2021/04/28 03:41:57;;;;;;;12.30;6.10;;;;;;;7.09;55.46;98656.75;2209301;40;20061;-76
2021/04/28 03:43:29;;;;;;;12.50;8.07;;;;;;;7.00;55.82;98651.41;2209477;40;20406;-77
2021/04/28 03:45:00;;;;;;;12.13;6.57;;;;;;;6.95;55.96;98661.66;2175117;40;20322;-76
2021/04/28 03:46:31;;;;;;;15.05;7.07;;;;;;;6.93;55.95;98660.97;2210550;40;20045;-78
2021/04/28 03:48:03;;;;;;;12.73;6.82;;;;;;;6.93;55.98;98662.81;2211599;40;20027;-77
2021/04/28 03:49:35;;;;;;;26.38;7.53;;;;;;;6.91;55.97;98659.47;2211936;40;20038;-78
2021/04/28 03:51:07;;;;;;;11.82;6.40;;;;;;;6.88;56.04;98663.28;2198557;40;20043;-78
2021/04/28 03:52:39;;;;;;;10.10;6.30;;;;;;;6.81;56.11;98662.22;2197866;40;20049;-77
2021/04/28 03:54:11;;;;;;;13.32;6.03;;;;;;;6.72;56.21;98659.50;2147325;41;20048;-76
2021/04/28 03:55:42;;;;;;;9.55;6.45;;;;;;;6.62;56.41;98665.91;2172179;41;20048;-76
2021/04/28 03:57:14;;;;;;;15.18;6.97;;;;;;;6.55;56.79;98663.00;2178717;41;20044;-77
2021/04/28 03:58:45;;;;;;;10.60;6.80;;;;;;;6.48;56.93;98657.47;2185147;40;20026;-77
2021/04/28 04:00:18;;;;;;;13.43;6.85;;;;;;;6.48;56.98;98659.31;2190848;40;20039;-77
2021/04/28 04:01:49;;;;;;;13.10;6.13;;;;;;;6.47;57.32;98662.94;2191806;40;20327;-78
2021/04/28 04:03:21;;;;;;;9.82;5.40;;;;;;;6.52;57.03;98658.00;2179788;40;20040;-77
2021/04/28 04:04:52;;;;;;;10.52;6.20;;;;;;;6.55;57.26;98658.56;2178801;40;20345;-77
2021/04/28 04:06:23;;;;;;;10.88;6.22;;;;;;;6.59;56.99;98658.22;2170238;41;20140;-77
2021/04/28 04:07:55;;;;;;;7.60;5.20;;;;;;;6.60;57.09;98655.44;2158249;41;20049;-77
2021/04/28 04:09:27;;;;;;;14.45;6.40;;;;;;;6.61;57.50;98665.06;2161443;41;20045;-78
2021/04/28 04:10:58;;;;;;;11.30;5.93;;;;;;;6.59;57.41;98660.88;2176000;40;20048;-78
2021/04/28 04:12:30;;;;;;;15.32;6.40;;;;;;;6.56;57.60;98659.38;2194401;40;20038;-78
2021/04/28 04:14:02;;;;;;;10.02;6.40;;;;;;;6.54;57.90;98664.84;2195839;40;20047;-78
2021/04/28 04:15:33;;;;;;;10.93;6.53;;;;;;;6.53;57.93;98673.78;2209262;40;20054;-77
2021/04/28 04:17:04;;;;;;;10.95;6.78;;;;;;;6.53;58.07;98680.91;2210725;40;20289;-78
2021/04/28 04:18:35;;;;;;;12.90;6.68;;;;;;;6.51;58.25;98666.97;2217360;40;20042;-78
2021/04/28 04:20:07;;;;;;;11.55;6.82;;;;;;;6.48;58.30;98675.22;2216950;40;20099;-77
2021/04/28 04:21:39;;;;;;;13.43;6.35;;;;;;;6.53;58.40;98672.94;2218069;40;20092;-77
2021/04/28 04:23:18;;;;;;;12.68;6.43;;;;;;;6.58;58.45;98677.78;2217534;40;20092;-78
2021/04/28 04:24:51;;;;;;;11.03;7.20;;;;;;;6.56;58.50;98676.13;2216557;40;20033;-79
2021/04/28 04:26:23;;;;;;;11.23;6.32;;;;;;;6.58;58.46;98686.63;2216335;40;20276;-79
2021/04/28 04:27:55;;;;;;;13.50;6.97;;;;;;;6.60;58.32;98681.13;2218480;40;20137;-78
2021/04/28 04:29:26;;;;;;;12.65;6.65;;;;;;;6.62;58.42;98674.69;2215715;40;20042;-78
2021/04/28 04:30:57;;;;;;;11.98;6.50;;;;;;;6.64;58.07;98678.03;2216916;40;20041;-78
2021/04/28 04:32:28;;;;;;;10.70;6.90;;;;;;;6.63;58.15;98679.00;2216241;40;20392;-78
2021/04/28 04:34:01;;;;;;;13.63;6.72;;;;;;;6.64;58.18;98680.69;2217630;40;20372;-77
2021/04/28 04:35:32;;;;;;;16.45;7.88;;;;;;;6.66;58.47;98675.22;2213760;40;20290;-77
2021/04/28 04:37:04;;;;;;;11.05;6.93;;;;;;;6.66;58.71;98676.06;2219758;40;20033;-77
2021/04/28 04:38:35;;;;;;;11.02;6.47;;;;;;;6.67;58.92;98682.19;2217402;40;20045;-77
2021/04/28 04:40:08;;;;;;;12.63;7.50;;;;;;;6.67;58.81;98679.53;2212831;40;20043;-78
2021/04/28 04:41:39;;;;;;;16.45;6.78;;;;;;;6.66;59.06;98685.84;2211542;40;20128;-78
2021/04/28 04:43:12;;;;;;;13.68;7.38;;;;;;;6.66;59.14;98688.50;2217007;40;20361;-78
2021/04/28 04:44:43;;;;;;;13.18;6.97;;;;;;;6.64;59.32;98683.34;2200100;40;20035;-78
2021/04/28 04:46:14;;;;;;;14.13;7.75;;;;;;;6.67;59.62;98682.19;2194316;40;20047;-78
2021/04/28 04:47:47;;;;;;;12.95;7.47;;;;;;;6.67;59.81;98682.19;2185354;40;20049;-78
2021/04/28 04:49:18;;;;;;;14.30;7.28;;;;;;;6.65;60.00;98679.69;2202804;40;20054;-79
2021/04/28 04:50:49;;;;;;;10.18;5.78;;;;;;;6.64;59.83;98678.03;2184091;40;20571;-78
2021/04/28 04:52:20;;;;;;;15.38;7.45;;;;;;;6.67;60.12;98676.88;2213593;40;20065;-78
2021/04/28 04:53:51;;;;;;;16.77;6.60;;;;;;;6.64;60.26;98680.69;2171283;40;20541;-77
2021/04/28 04:55:23;;;;;;;12.40;7.32;;;;;;;6.65;60.42;98673.56;2199866;40;20050;-77
2021/04/28 04:56:55;;;;;;;14.45;7.15;;;;;;;6.67;60.47;98688.34;2162247;40;20047;-78
2021/04/28 04:58:29;;;;;;;11.48;7.72;;;;;;;6.73;60.05;98689.56;2198251;40;20041;-77
2021/04/28 05:00:01;;;;;;;12.32;6.45;;;;;;;6.75;60.06;98679.63;2171622;40;20035;-78
2021/04/28 05:01:33;;;;;;;13.02;6.88;;;;;;;6.76;60.03;98683.09;2204630;40;20033;-77
2021/04/28 05:03:04;;;;;;;13.50;7.45;;;;;;;6.79;59.97;98693.44;2195034;40;20107;-77
2021/04/28 05:04:36;;;;;;;17.95;8.25;;;;;;;6.78;59.64;98683.78;2201939;40;20039;-78
2021/04/28 05:06:07;;;;;;;14.27;7.78;;;;;;;6.80;59.52;98685.31;2184230;40;20543;-77
2021/04/28 05:07:39;;;;;;;12.10;7.05;;;;;;;6.80;59.64;98685.31;2188747;40;20043;-77
2021/04/28 05:09:10;;;;;;;15.43;7.97;;;;;;;6.83;59.49;98690.31;2174029;40;20046;-77
2021/04/28 05:10:42;;;;;;;11.52;7.30;;;;;;;6.85;59.09;98690.16;2200768;40;20031;-78
2021/04/28 05:12:14;;;;;;;14.80;7.50;;;;;;;6.87;58.69;98693.50;2205483;40;20042;-78
2021/04/28 05:13:46;;;;;;;12.13;7.50;;;;;;;6.93;58.45;98692.88;2205811;40;20063;-77
2021/04/28 05:15:18;;;;;;;13.10;7.38;;;;;;;6.98;58.13;98690.59;2206245;40;20042;-77
2021/04/28 05:16:49;;;;;;;10.40;6.82;;;;;;;7.05;58.21;98695.28;2204039;40;20058;-80
2021/04/28 05:18:21;;;;;;;11.25;6.93;;;;;;;7.05;57.59;98684.66;2205075;40;20062;-77
2021/04/28 05:19:52;;;;;;;14.65;7.40;;;;;;;7.07;57.52;98691.47;2207169;40;20040;-78
2021/04/28 05:21:23;;;;;;;13.25;7.47;;;;;;;7.13;57.49;98687.34;2205417;40;20518;-77
2021/04/28 05:22:55;;;;;;;12.02;6.80;;;;;;;7.21;57.34;98689.25;2201354;40;20050;-77
2021/04/28 05:24:26;;;;;;;17.15;7.65;;;;;;;7.29;56.84;98692.78;2199526;40;20334;-77
2021/04/28 05:25:57;;;;;;;12.60;6.25;;;;;;;7.34;56.94;98679.84;2169304;40;20050;-77
2021/04/28 05:27:28;;;;;;;13.02;7.22;;;;;;;7.46;56.55;98687.56;2205252;40;20043;-77
2021/04/28 05:29:01;;;;;;;14.15;7.00;;;;;;;7.53;56.71;98682.44;2183207;40;20501;-77
2021/04/28 05:30:32;;;;;;;16.45;6.85;;;;;;;7.57;56.45;98683.78;2205321;40;20031;-78
2021/04/28 05:32:04;;;;;;;15.38;7.00;;;;;;;7.67;56.53;98678.34;2160370;40;20045;-79
2021/04/28 05:33:36;;;;;;;18.42;7.55;;;;;;;7.77;55.89;98684.38;2205164;40;20038;-79
2021/04/28 05:35:08;;;;;;;16.48;7.35;;;;;;;7.81;55.83;98678.56;2204668;40;20046;-78
2021/04/28 05:36:40;;;;;;;13.32;5.25;;;;;;;7.83;55.81;98678.44;2219443;40;20326;-78
2021/04/28 05:38:11;;;;;;;12.10;6.07;;;;;;;7.92;55.42;98680.13;2223197;40;20134;-78
2021/04/28 05:39:43;;;;;;;14.98;5.88;;;;;;;7.97;55.57;98672.47;2223655;40;20029;-77
2021/04/28 05:41:14;;;;;;;15.18;6.97;;;;;;;8.03;55.25;98667.53;2214656;40;20037;-78
2021/04/28 05:42:46;;;;;;;13.38;6.13;;;;;;;8.09;55.10;98674.84;2211369;40;20034;-79
2021/04/28 05:44:18;;;;;;;15.30;8.35;;;;;;;8.19;54.91;98677.34;2215593;40;20081;-78
2021/04/28 05:45:50;;;;;;;15.60;6.65;;;;;;;8.20;54.71;98674.53;2217594;40;20037;-78
2021/04/28 05:47:20;;;;;;;16.42;7.10;;;;;;;8.23;54.66;98668.06;2216429;40;20045;-78
2021/04/28 05:48:52;;;;;;;11.95;5.85;;;;;;;8.30;54.57;98673.56;2218983;40;20040;-79
2021/04/28 05:50:23;;;;;;;16.80;6.47;;;;;;;8.36;54.42;98675.56;2217884;40;20045;-78
2021/04/28 05:51:55;;;;;;;16.48;6.50;;;;;;;8.44;54.11;98675.56;2220175;40;20038;-77
2021/04/28 05:53:26;;;;;;;17.33;7.18;;;;;;;8.53;53.90;98682.59;2219145;40;20091;-78
2021/04/28 05:54:57;;;;;;;14.45;7.40;;;;;;;8.56;53.98;98674.28;2220668;40;20029;-78
2021/04/28 05:56:29;;;;;;;20.15;8.30;;;;;;;8.54;54.15;98675.47;2219327;40;20037;-78
2021/04/28 05:58:00;;;;;;;17.52;8.75;;;;;;;8.52;54.27;98672.94;2220636;40;20037;-79
2021/04/28 05:59:32;;;;;;;14.40;6.57;;;;;;;8.53;54.30;98676.47;2217819;40;20056;-78
2021/04/28 06:01:04;;;;;;;11.70;7.68;;;;;;;8.58;54.11;98674.97;2218843;40;20547;-78
2021/04/28 06:02:37;;;;;;;22.35;8.73;;;;;;;8.60;54.15;98681.97;2212643;40;20052;-78
2021/04/28 06:04:09;;;;;;;15.90;8.25;;;;;;;8.61;54.38;98667.63;2215880;40;20038;-79
2021/04/28 06:05:40;;;;;;;25.42;8.85;;;;;;;8.55;54.63;98675.28;2213836;40;20057;-78
2021/04/28 06:07:11;;;;;;;20.80;8.68;;;;;;;8.53;54.66;98677.28;2215888;40;20152;-78
2021/04/28 06:08:43;;;;;;;19.90;9.00;;;;;;;8.51;54.90;98679.25;2213365;40;20050;-77
2021/04/28 06:10:16;;;;;;;14.93;7.80;;;;;;;8.54;54.80;98675.47;2214837;40;20054;-78
2021/04/28 06:11:47;;;;;;;19.10;8.45;;;;;;;8.57;54.55;98681.28;2212903;40;20450;-78
2021/04/28 06:13:20;;;;;;;19.05;8.45;;;;;;;8.61;54.37;98680.94;2214190;40;20081;-78
2021/04/28 06:14:52;;;;;;;15.23;8.35;;;;;;;8.65;54.47;98675.13;2218483;40;20045;-78
2021/04/28 06:16:25;;;;;;;13.20;6.40;;;;;;;8.64;54.25;98673.47;2218630;40;20037;-78
2021/04/28 06:17:56;;;;;;;11.88;6.65;;;;;;;8.66;54.09;98674.13;2219362;40;20064;-78
2021/04/28 06:19:27;;;;;;;24.35;7.55;;;;;;;8.70;54.01;98675.47;2216916;40;20033;-78
2021/04/28 06:20:59;;;;;;;21.63;8.10;;;;;;;8.78;53.98;98676.47;2218332;40;20057;-78
2021/04/28 06:22:30;;;;;;;16.52;8.10;;;;;;;8.86;53.66;98674.63;2216937;40;20119;-78
2021/04/28 06:24:04;;;;;;;17.35;8.50;;;;;;;8.95;53.35;98677.28;2217995;40;20037;-78
2021/04/28 06:25:35;;;;;;;20.27;8.73;;;;;;;9.02;53.14;98672.94;2217397;40;20423;-79
2021/04/28 06:27:07;;;;;;;16.85;7.82;;;;;;;9.10;53.04;98675.59;2219024;40;20029;-78
2021/04/28 06:28:38;;;;;;;25.00;8.80;;;;;;;9.12;52.73;98670.09;2216846;40;20037;-78
2021/04/28 06:30:12;;;;;;;14.40;6.35;;;;;;;9.16;52.83;98676.75;2218143;40;20029;-78
2021/04/28 06:31:43;;;;;;;23.25;9.02;;;;;;;9.23;52.49;98676.91;2217763;40;20034;-78
2021/04/28 06:33:16;;;;;;;19.02;8.45;;;;;;;9.31;52.23;98671.56;2219977;40;20033;-78
2021/04/28 06:34:48;;;;;;;13.32;6.45;;;;;;;9.39;51.73;98679.53;2216401;40;21015;-78
2021/04/28 06:36:19;;;;;;;13.88;7.13;;;;;;;9.46;51.76;98680.53;2213353;40;20061;-78
2021/04/28 06:37:50;;;;;;;15.48;6.75;;;;;;;9.59;51.58;98673.81;2217596;40;20041;-78
2021/04/28 06:39:22;;;;;;;14.20;7.95;;;;;;;9.65;51.34;98667.78;2218249;40;20045;-78
2021/04/28 06:40:53;;;;;;;12.10;7.05;;;;;;;9.76;51.01;98670.09;2179547;40;20083;-77
2021/04/28 06:42:25;;;;;;;14.35;6.72;;;;;;;9.88;50.85;98672.38;2197611;40;20049;-78
2021/04/28 06:43:55;;;;;;;18.17;7.57;;;;;;;10.02;50.36;98668.94;2201044;40;20042;-78
2021/04/28 06:45:28;;;;;;;17.77;7.60;;;;;;;10.09;50.06;98672.63;2201652;40;20362;-77
2021/04/28 06:46:59;;;;;;;18.35;8.52;;;;;;;10.12;49.73;98672.25;2195799;40;20046;-77
2021/04/28 06:48:30;;;;;;;12.98;7.57;;;;;;;10.16;49.35;98656.69;2223645;40;20033;-78
2021/04/28 06:50:03;;;;;;;18.42;8.65;;;;;;;10.22;49.31;98664.03;2218299;40;20083;-78
2021/04/28 06:51:34;;;;;;;17.58;8.23;;;;;;;10.27;48.89;98663.50;2204459;40;20039;-78
2021/04/28 06:53:05;;;;;;;23.58;9.60;;;;;;;10.31;48.58;98659.44;2195016;40;20045;-79
2021/04/28 06:54:37;;;;;;;13.88;8.05;;;;;;;10.39;48.55;98667.44;2209978;40;20037;-77
2021/04/28 06:56:08;;;;;;;13.70;7.35;;;;;;;10.48;48.34;98667.41;2209647;40;20100;-78
2021/04/28 06:57:39;;;;;;;16.77;7.03;;;;;;;10.59;48.00;98656.28;2217616;40;20517;-78
2021/04/28 06:59:14;;;;;;;11.95;7.70;;;;;;;10.72;47.71;98658.38;2216617;40;20057;-78
2021/04/28 07:00:46;;;;;;;19.58;8.43;;;;;;;10.83;47.34;98655.25;2211920;40;20120;-77
2021/04/28 07:02:17;;;;;;;12.73;7.07;;;;;;;10.87;47.02;98656.56;2209959;40;20452;-79
2021/04/28 07:03:48;;;;;;;13.43;7.72;;;;;;;11.00;46.80;98661.28;2211682;40;20034;-80
2021/04/28 07:05:21;;;;;;;14.77;8.07;;;;;;;11.11;46.55;98656.50;2210690;40;20050;-78
2021/04/28 07:06:52;;;;;;;12.50;5.93;;;;;;;11.24;46.43;98651.38;2214385;40;20122;-78
2021/04/28 07:08:24;;;;;;;15.73;7.13;;;;;;;11.37;46.04;98646.19;2215510;40;20045;-79
2021/04/28 07:09:55;;;;;;;17.35;7.18;;;;;;;11.54;45.75;98644.16;2217298;40;20037;-78
2021/04/28 07:11:26;;;;;;;10.18;5.65;;;;;;;11.69;45.48;98637.97;2216122;40;20159;-78
2021/04/28 07:12:59;;;;;;;15.32;7.20;;;;;;;11.88;45.21;98646.44;2217527;40;20037;-79